Howard Beach, New York
Current Conditions -  °F | °C
As of 3:51 AM on Tuesday 21 Oct 2014 (Local Time) from KJFK Reporting Station
Overcast Overcast  
Wind Chill: 56°   Ceiling: 5000
Heat Index: 56°   Visibility: 10mi
Dew Point: 46°   Wind: 0mph
Humidity: 69%   Direction: NA
Pressure: 29.92"   Gusts: NA
Location:  40.66°N, 73.84°W
Report Text: KJFK 210751Z 00000KT 10SM BKN050 OVC130 13/08 A2992 RMK AO2 SLP131 T01330078
Loading
Personal Weather Stations






























Interactive Weather Map New forecast layout! Learn more

10-Day Weather Forecast

Advertisements
Track Severe Weather on mobile